sensor_id;sensor_type;location;lat;lon;timestamp;P1;durP1;ratioP1;P2;durP2;ratioP2
65469;SDS011;52067;50.710;14.492;2024-03-02T00:02:01;38.92;;;21.40;;
65469;SDS011;52067;50.710;14.492;2024-03-02T00:04:26;38.50;;;21.85;;
65469;SDS011;52067;50.710;14.492;2024-03-02T00:06:52;36.78;;;21.80;;
65469;SDS011;52067;50.710;14.492;2024-03-02T00:09:22;37.10;;;20.63;;
65469;SDS011;52067;50.710;14.492;2024-03-02T00:11:48;41.90;;;20.55;;
65469;SDS011;52067;50.710;14.492;2024-03-02T00:14:13;36.55;;;20.55;;
65469;SDS011;52067;50.710;14.492;2024-03-02T00:16:39;39.85;;;19.27;;
65469;SDS011;52067;50.710;14.492;2024-03-02T00:19:07;33.00;;;19.95;;
65469;SDS011;52067;50.710;14.492;2024-03-02T00:21:34;41.38;;;20.95;;
65469;SDS011;52067;50.710;14.492;2024-03-02T00:24:00;38.97;;;20.08;;
65469;SDS011;52067;50.710;14.492;2024-03-02T00:26:32;35.38;;;20.08;;
65469;SDS011;52067;50.710;14.492;2024-03-02T00:29:00;34.00;;;20.15;;
65469;SDS011;52067;50.710;14.492;2024-03-02T00:31:26;34.95;;;19.75;;
65469;SDS011;52067;50.710;14.492;2024-03-02T00:33:51;35.65;;;19.83;;
65469;SDS011;52067;50.710;14.492;2024-03-02T00:36:24;38.95;;;20.80;;
65469;SDS011;52067;50.710;14.492;2024-03-02T00:38:51;34.63;;;20.25;;
65469;SDS011;52067;50.710;14.492;2024-03-02T00:46:26;33.60;;;19.38;;
65469;SDS011;52067;50.710;14.492;2024-03-02T00:51:22;39.63;;;20.63;;
65469;SDS011;52067;50.710;14.492;2024-03-02T00:53:48;36.03;;;20.73;;
65469;SDS011;52067;50.710;14.492;2024-03-02T00:56:14;38.72;;;21.70;;
65469;SDS011;52067;50.710;14.492;2024-03-02T00:58:40;40.22;;;21.35;;
65469;SDS011;52067;50.710;14.492;2024-03-02T01:01:08;35.67;;;20.60;;
65469;SDS011;52067;50.710;14.492;2024-03-02T01:03:34;38.72;;;20.33;;
65469;SDS011;52067;50.710;14.492;2024-03-02T01:06:00;39.95;;;20.50;;
65469;SDS011;52067;50.710;14.492;2024-03-02T01:08:25;49.15;;;22.65;;
65469;SDS011;52067;50.710;14.492;2024-03-02T01:10:51;38.83;;;22.25;;
65469;SDS011;52067;50.710;14.492;2024-03-02T01:13:17;42.05;;;23.45;;
65469;SDS011;52067;50.710;14.492;2024-03-02T01:15:42;41.53;;;23.25;;
65469;SDS011;52067;50.710;14.492;2024-03-02T01:18:08;43.05;;;23.17;;
65469;SDS011;52067;50.710;14.492;2024-03-02T01:20:34;45.75;;;24.45;;
65469;SDS011;52067;50.710;14.492;2024-03-02T01:22:59;49.28;;;24.83;;
65469;SDS011;52067;50.710;14.492;2024-03-02T01:25:25;46.75;;;23.40;;
65469;SDS011;52067;50.710;14.492;2024-03-02T01:27:50;49.38;;;25.42;;
65469;SDS011;52067;50.710;14.492;2024-03-02T01:30:16;46.67;;;24.88;;
65469;SDS011;52067;50.710;14.492;2024-03-02T01:32:41;43.75;;;25.50;;
65469;SDS011;52067;50.710;14.492;2024-03-02T01:35:07;42.60;;;24.08;;
65469;SDS011;52067;50.710;14.492;2024-03-02T01:37:32;43.45;;;25.25;;
65469;SDS011;52067;50.710;14.492;2024-03-02T01:39:58;47.95;;;24.98;;
65469;SDS011;52067;50.710;14.492;2024-03-02T01:42:24;50.08;;;25.88;;
65469;SDS011;52067;50.710;14.492;2024-03-02T01:44:49;52.38;;;26.13;;
65469;SDS011;52067;50.710;14.492;2024-03-02T01:47:15;45.95;;;26.15;;
65469;SDS011;52067;50.710;14.492;2024-03-02T01:49:40;48.92;;;25.95;;
65469;SDS011;52067;50.710;14.492;2024-03-02T01:52:06;48.80;;;25.77;;
65469;SDS011;52067;50.710;14.492;2024-03-02T01:54:32;48.25;;;25.70;;
65469;SDS011;52067;50.710;14.492;2024-03-02T01:56:58;50.88;;;25.88;;
65469;SDS011;52067;50.710;14.492;2024-03-02T01:59:24;53.65;;;25.83;;
65469;SDS011;52067;50.710;14.492;2024-03-02T02:01:49;53.30;;;26.52;;
65469;SDS011;52067;50.710;14.492;2024-03-02T02:04:24;52.58;;;26.20;;
65469;SDS011;52067;50.710;14.492;2024-03-02T02:06:52;54.47;;;27.77;;
65469;SDS011;52067;50.710;14.492;2024-03-02T02:09:18;55.08;;;26.17;;
65469;SDS011;52067;50.710;14.492;2024-03-02T02:11:44;51.65;;;27.10;;
65469;SDS011;52067;50.710;14.492;2024-03-02T02:14:10;55.08;;;28.05;;
65469;SDS011;52067;50.710;14.492;2024-03-02T02:16:36;57.08;;;27.92;;
65469;SDS011;52067;50.710;14.492;2024-03-02T02:19:01;62.47;;;27.35;;
65469;SDS011;52067;50.710;14.492;2024-03-02T02:21:27;55.03;;;28.17;;
65469;SDS011;52067;50.710;14.492;2024-03-02T02:23:52;50.88;;;26.35;;
65469;SDS011;52067;50.710;14.492;2024-03-02T02:26:18;60.90;;;27.85;;
65469;SDS011;52067;50.710;14.492;2024-03-02T02:28:43;54.95;;;26.92;;
65469;SDS011;52067;50.710;14.492;2024-03-02T02:31:12;52.30;;;26.50;;
65469;SDS011;52067;50.710;14.492;2024-03-02T02:33:41;55.25;;;27.27;;
65469;SDS011;52067;50.710;14.492;2024-03-02T02:36:07;57.47;;;27.23;;
65469;SDS011;52067;50.710;14.492;2024-03-02T02:38:35;55.15;;;27.48;;
65469;SDS011;52067;50.710;14.492;2024-03-02T02:41:03;55.30;;;26.50;;
65469;SDS011;52067;50.710;14.492;2024-03-02T02:43:29;51.22;;;27.10;;
65469;SDS011;52067;50.710;14.492;2024-03-02T02:45:54;51.35;;;26.52;;
65469;SDS011;52067;50.710;14.492;2024-03-02T02:48:20;55.35;;;27.52;;
65469;SDS011;52067;50.710;14.492;2024-03-02T02:50:45;61.75;;;27.48;;
65469;SDS011;52067;50.710;14.492;2024-03-02T02:53:11;58.35;;;26.95;;
65469;SDS011;52067;50.710;14.492;2024-03-02T02:55:36;53.17;;;26.60;;
65469;SDS011;52067;50.710;14.492;2024-03-02T02:58:05;49.50;;;25.20;;
65469;SDS011;52067;50.710;14.492;2024-03-02T03:00:32;51.95;;;25.13;;
65469;SDS011;52067;50.710;14.492;2024-03-02T03:03:00;57.67;;;26.63;;
65469;SDS011;52067;50.710;14.492;2024-03-02T03:05:26;50.25;;;26.63;;
65469;SDS011;52067;50.710;14.492;2024-03-02T03:07:51;49.85;;;26.08;;
65469;SDS011;52067;50.710;14.492;2024-03-02T03:10:17;50.70;;;26.08;;
65469;SDS011;52067;50.710;14.492;2024-03-02T03:12:43;51.92;;;25.75;;
65469;SDS011;52067;50.710;14.492;2024-03-02T03:15:09;54.92;;;28.08;;
65469;SDS011;52067;50.710;14.492;2024-03-02T03:17:35;52.53;;;27.63;;
65469;SDS011;52067;50.710;14.492;2024-03-02T03:20:02;50.60;;;26.00;;
65469;SDS011;52067;50.710;14.492;2024-03-02T03:22:29;54.80;;;26.10;;
65469;SDS011;52067;50.710;14.492;2024-03-02T03:24:54;55.88;;;27.67;;
65469;SDS011;52067;50.710;14.492;2024-03-02T03:27:20;53.38;;;26.40;;
65469;SDS011;52067;50.710;14.492;2024-03-02T03:29:45;55.65;;;28.80;;
65469;SDS011;52067;50.710;14.492;2024-03-02T03:32:10;54.35;;;27.67;;
65469;SDS011;52067;50.710;14.492;2024-03-02T03:34:36;65.30;;;31.20;;
65469;SDS011;52067;50.710;14.492;2024-03-02T03:37:02;60.58;;;30.63;;
65469;SDS011;52067;50.710;14.492;2024-03-02T03:39:27;61.92;;;31.13;;
65469;SDS011;52067;50.710;14.492;2024-03-02T03:41:56;68.75;;;31.90;;
65469;SDS011;52067;50.710;14.492;2024-03-02T03:44:21;65.13;;;30.70;;
65469;SDS011;52067;50.710;14.492;2024-03-02T03:46:46;72.40;;;31.38;;
65469;SDS011;52067;50.710;14.492;2024-03-02T03:49:12;66.68;;;30.85;;
65469;SDS011;52067;50.710;14.492;2024-03-02T03:51:37;64.28;;;29.85;;
65469;SDS011;52067;50.710;14.492;2024-03-02T03:54:03;62.08;;;29.58;;
65469;SDS011;52067;50.710;14.492;2024-03-02T03:56:28;72.30;;;30.55;;
65469;SDS011;52067;50.710;14.492;2024-03-02T03:58:53;64.75;;;31.15;;
65469;SDS011;52067;50.710;14.492;2024-03-02T04:01:19;67.75;;;32.60;;
65469;SDS011;52067;50.710;14.492;2024-03-02T04:03:44;73.43;;;31.67;;
65469;SDS011;52067;50.710;14.492;2024-03-02T04:06:10;76.60;;;33.20;;
65469;SDS011;52067;50.710;14.492;2024-03-02T04:08:35;76.07;;;31.90;;
65469;SDS011;52067;50.710;14.492;2024-03-02T04:11:00;79.72;;;34.35;;
65469;SDS011;52067;50.710;14.492;2024-03-02T04:13:27;84.07;;;32.38;;
65469;SDS011;52067;50.710;14.492;2024-03-02T04:15:53;78.65;;;33.58;;
65469;SDS011;52067;50.710;14.492;2024-03-02T04:18:18;80.55;;;33.53;;
65469;SDS011;52067;50.710;14.492;2024-03-02T04:20:44;84.20;;;33.70;;
65469;SDS011;52067;50.710;14.492;2024-03-02T04:23:09;86.13;;;32.40;;
65469;SDS011;52067;50.710;14.492;2024-03-02T04:25:35;78.35;;;33.28;;
65469;SDS011;52067;50.710;14.492;2024-03-02T04:28:01;88.03;;;34.83;;
65469;SDS011;52067;50.710;14.492;2024-03-02T04:30:26;86.90;;;34.78;;
65469;SDS011;52067;50.710;14.492;2024-03-02T04:32:52;89.10;;;35.97;;
65469;SDS011;52067;50.710;14.492;2024-03-02T04:35:17;85.70;;;31.42;;
65469;SDS011;52067;50.710;14.492;2024-03-02T04:37:42;91.85;;;36.35;;
65469;SDS011;52067;50.710;14.492;2024-03-02T04:40:08;95.57;;;36.72;;
65469;SDS011;52067;50.710;14.492;2024-03-02T04:42:34;83.43;;;32.15;;
65469;SDS011;52067;50.710;14.492;2024-03-02T04:45:00;82.32;;;32.33;;
65469;SDS011;52067;50.710;14.492;2024-03-02T04:47:26;98.38;;;35.45;;
65469;SDS011;52067;50.710;14.492;2024-03-02T04:49:51;88.35;;;33.20;;
65469;SDS011;52067;50.710;14.492;2024-03-02T04:52:17;78.05;;;33.92;;
65469;SDS011;52067;50.710;14.492;2024-03-02T04:54:43;93.45;;;36.05;;
65469;SDS011;52067;50.710;14.492;2024-03-02T04:57:27;96.72;;;38.63;;
65469;SDS011;52067;50.710;14.492;2024-03-02T04:59:52;97.18;;;41.60;;
65469;SDS011;52067;50.710;14.492;2024-03-02T05:02:17;83.10;;;35.72;;
65469;SDS011;52067;50.710;14.492;2024-03-02T05:04:43;83.50;;;33.75;;
65469;SDS011;52067;50.710;14.492;2024-03-02T05:07:08;86.60;;;35.10;;
65469;SDS011;52067;50.710;14.492;2024-03-02T05:09:33;82.07;;;33.33;;
65469;SDS011;52067;50.710;14.492;2024-03-02T05:11:59;80.70;;;32.40;;
65469;SDS011;52067;50.710;14.492;2024-03-02T05:14:42;72.22;;;29.73;;
65469;SDS011;52067;50.710;14.492;2024-03-02T05:17:07;76.60;;;30.52;;
65469;SDS011;52067;50.710;14.492;2024-03-02T05:19:33;70.25;;;29.00;;
65469;SDS011;52067;50.710;14.492;2024-03-02T05:21:58;70.90;;;28.83;;
65469;SDS011;52067;50.710;14.492;2024-03-02T05:24:24;68.18;;;29.40;;
65469;SDS011;52067;50.710;14.492;2024-03-02T05:26:52;73.03;;;30.25;;
65469;SDS011;52067;50.710;14.492;2024-03-02T05:29:17;75.22;;;30.38;;
65469;SDS011;52067;50.710;14.492;2024-03-02T05:31:43;72.18;;;29.02;;
65469;SDS011;52067;50.710;14.492;2024-03-02T05:34:08;59.92;;;26.52;;
65469;SDS011;52067;50.710;14.492;2024-03-02T05:36:33;71.00;;;28.80;;
65469;SDS011;52067;50.710;14.492;2024-03-02T05:38:59;62.40;;;27.13;;
65469;SDS011;52067;50.710;14.492;2024-03-02T05:41:24;65.80;;;26.55;;
65469;SDS011;52067;50.710;14.492;2024-03-02T05:43:49;65.78;;;27.23;;
65469;SDS011;52067;50.710;14.492;2024-03-02T05:46:15;61.63;;;26.13;;
65469;SDS011;52067;50.710;14.492;2024-03-02T05:48:40;66.18;;;26.90;;
65469;SDS011;52067;50.710;14.492;2024-03-02T05:51:05;61.72;;;26.60;;
65469;SDS011;52067;50.710;14.492;2024-03-02T05:53:31;61.92;;;26.25;;
65469;SDS011;52067;50.710;14.492;2024-03-02T05:55:57;57.45;;;24.98;;
65469;SDS011;52067;50.710;14.492;2024-03-02T05:58:23;54.75;;;24.02;;
65469;SDS011;52067;50.710;14.492;2024-03-02T06:01:07;50.85;;;21.75;;
65469;SDS011;52067;50.710;14.492;2024-03-02T06:03:32;55.47;;;23.67;;
65469;SDS011;52067;50.710;14.492;2024-03-02T06:05:58;49.35;;;21.17;;
65469;SDS011;52067;50.710;14.492;2024-03-02T06:08:23;47.45;;;21.42;;
65469;SDS011;52067;50.710;14.492;2024-03-02T06:10:48;47.78;;;21.23;;
65469;SDS011;52067;50.710;14.492;2024-03-02T06:13:14;47.33;;;22.25;;
65469;SDS011;52067;50.710;14.492;2024-03-02T06:15:39;49.45;;;21.65;;
65469;SDS011;52067;50.710;14.492;2024-03-02T06:18:05;48.42;;;21.92;;
65469;SDS011;52067;50.710;14.492;2024-03-02T06:20:32;44.17;;;21.65;;
65469;SDS011;52067;50.710;14.492;2024-03-02T06:22:58;47.35;;;21.40;;
65469;SDS011;52067;50.710;14.492;2024-03-02T06:25:23;55.00;;;22.35;;
65469;SDS011;52067;50.710;14.492;2024-03-02T06:27:49;46.25;;;21.17;;
65469;SDS011;52067;50.710;14.492;2024-03-02T06:30:14;47.35;;;21.33;;
65469;SDS011;52067;50.710;14.492;2024-03-02T06:32:39;44.42;;;22.27;;
65469;SDS011;52067;50.710;14.492;2024-03-02T06:35:05;53.50;;;21.52;;
65469;SDS011;52067;50.710;14.492;2024-03-02T06:37:33;47.30;;;20.50;;
65469;SDS011;52067;50.710;14.492;2024-03-02T06:39:58;44.97;;;21.00;;
65469;SDS011;52067;50.710;14.492;2024-03-02T06:42:23;46.92;;;21.10;;
65469;SDS011;52067;50.710;14.492;2024-03-02T06:44:51;46.72;;;21.00;;
65469;SDS011;52067;50.710;14.492;2024-03-02T06:47:18;46.95;;;21.20;;
65469;SDS011;52067;50.710;14.492;2024-03-02T06:49:45;49.47;;;20.50;;
65469;SDS011;52067;50.710;14.492;2024-03-02T06:52:10;40.85;;;19.70;;
65469;SDS011;52067;50.710;14.492;2024-03-02T06:54:36;43.20;;;20.95;;
65469;SDS011;52067;50.710;14.492;2024-03-02T06:57:01;40.92;;;18.98;;
65469;SDS011;52067;50.710;14.492;2024-03-02T06:59:27;40.85;;;19.23;;
65469;SDS011;52067;50.710;14.492;2024-03-02T07:01:52;37.08;;;18.35;;
65469;SDS011;52067;50.710;14.492;2024-03-02T07:04:17;43.22;;;19.58;;
65469;SDS011;52067;50.710;14.492;2024-03-02T07:06:43;40.38;;;19.33;;
65469;SDS011;52067;50.710;14.492;2024-03-02T07:09:08;43.10;;;18.52;;
65469;SDS011;52067;50.710;14.492;2024-03-02T07:11:36;39.80;;;18.33;;
65469;SDS011;52067;50.710;14.492;2024-03-02T07:14:01;42.15;;;19.08;;
65469;SDS011;52067;50.710;14.492;2024-03-02T07:16:26;40.28;;;18.52;;
65469;SDS011;52067;50.710;14.492;2024-03-02T07:18:53;37.25;;;17.88;;
65469;SDS011;52067;50.710;14.492;2024-03-02T07:21:21;42.65;;;18.15;;
65469;SDS011;52067;50.710;14.492;2024-03-02T07:23:47;37.28;;;16.10;;
65469;SDS011;52067;50.710;14.492;2024-03-02T07:26:13;41.70;;;18.35;;
65469;SDS011;52067;50.710;14.492;2024-03-02T07:28:40;42.30;;;18.23;;
65469;SDS011;52067;50.710;14.492;2024-03-02T07:31:06;37.15;;;17.25;;
65469;SDS011;52067;50.710;14.492;2024-03-02T07:33:32;37.72;;;17.60;;
65469;SDS011;52067;50.710;14.492;2024-03-02T07:35:57;39.30;;;17.00;;
65469;SDS011;52067;50.710;14.492;2024-03-02T07:38:27;41.42;;;17.98;;
65469;SDS011;52067;50.710;14.492;2024-03-02T07:40:53;37.83;;;17.50;;
65469;SDS011;52067;50.710;14.492;2024-03-02T07:43:20;33.35;;;16.15;;
65469;SDS011;52067;50.710;14.492;2024-03-02T07:45:46;37.88;;;18.75;;
65469;SDS011;52067;50.710;14.492;2024-03-02T07:48:12;37.95;;;16.65;;
65469;SDS011;52067;50.710;14.492;2024-03-02T07:50:37;37.35;;;17.15;;
65469;SDS011;52067;50.710;14.492;2024-03-02T07:53:04;33.63;;;17.25;;
65469;SDS011;52067;50.710;14.492;2024-03-02T07:55:30;36.95;;;16.75;;
65469;SDS011;52067;50.710;14.492;2024-03-02T07:57:59;34.58;;;16.00;;
65469;SDS011;52067;50.710;14.492;2024-03-02T08:00:25;35.10;;;14.23;;
65469;SDS011;52067;50.710;14.492;2024-03-02T08:02:52;38.22;;;17.38;;
65469;SDS011;52067;50.710;14.492;2024-03-02T08:05:17;36.40;;;16.30;;
65469;SDS011;52067;50.710;14.492;2024-03-02T08:07:46;32.08;;;15.95;;
65469;SDS011;52067;50.710;14.492;2024-03-02T08:10:12;31.40;;;15.52;;
65469;SDS011;52067;50.710;14.492;2024-03-02T08:12:38;36.35;;;16.92;;
65469;SDS011;52067;50.710;14.492;2024-03-02T08:15:03;31.65;;;16.73;;
65469;SDS011;52067;50.710;14.492;2024-03-02T08:17:29;33.80;;;16.67;;
65469;SDS011;52067;50.710;14.492;2024-03-02T08:19:55;31.20;;;15.93;;
65469;SDS011;52067;50.710;14.492;2024-03-02T08:22:21;31.67;;;15.38;;
65469;SDS011;52067;50.710;14.492;2024-03-02T08:24:46;34.28;;;16.00;;
65469;SDS011;52067;50.710;14.492;2024-03-02T08:27:12;32.33;;;15.55;;
65469;SDS011;52067;50.710;14.492;2024-03-02T08:29:37;31.65;;;14.43;;
65469;SDS011;52067;50.710;14.492;2024-03-02T08:32:03;37.08;;;16.17;;
65469;SDS011;52067;50.710;14.492;2024-03-02T08:34:33;29.67;;;15.05;;
65469;SDS011;52067;50.710;14.492;2024-03-02T08:37:00;33.25;;;16.88;;
65469;SDS011;52067;50.710;14.492;2024-03-02T08:39:26;36.70;;;16.30;;
65469;SDS011;52067;50.710;14.492;2024-03-02T08:41:52;31.83;;;14.82;;
65469;SDS011;52067;50.710;14.492;2024-03-02T08:44:18;35.63;;;16.85;;
65469;SDS011;52067;50.710;14.492;2024-03-02T08:46:44;28.88;;;14.98;;
65469;SDS011;52067;50.710;14.492;2024-03-02T08:49:09;32.40;;;16.63;;
65469;SDS011;52067;50.710;14.492;2024-03-02T08:51:35;32.67;;;15.95;;
65469;SDS011;52067;50.710;14.492;2024-03-02T08:54:00;34.22;;;16.27;;
65469;SDS011;52067;50.710;14.492;2024-03-02T08:56:25;30.33;;;15.65;;
65469;SDS011;52067;50.710;14.492;2024-03-02T08:58:51;36.38;;;15.73;;
65469;SDS011;52067;50.710;14.492;2024-03-02T09:01:17;32.20;;;15.57;;
65469;SDS011;52067;50.710;14.492;2024-03-02T09:03:44;37.80;;;16.33;;
65469;SDS011;52067;50.710;14.492;2024-03-02T09:06:10;32.08;;;14.18;;
65469;SDS011;52067;50.710;14.492;2024-03-02T09:08:36;35.30;;;16.92;;
65469;SDS011;52067;50.710;14.492;2024-03-02T09:11:05;29.63;;;15.10;;
65469;SDS011;52067;50.710;14.492;2024-03-02T09:13:32;33.75;;;15.77;;
65469;SDS011;52067;50.710;14.492;2024-03-02T09:15:58;28.30;;;14.57;;
65469;SDS011;52067;50.710;14.492;2024-03-02T09:18:24;29.95;;;14.82;;
65469;SDS011;52067;50.710;14.492;2024-03-02T09:20:50;32.83;;;15.85;;
65469;SDS011;52067;50.710;14.492;2024-03-02T09:23:15;32.58;;;14.75;;
65469;SDS011;52067;50.710;14.492;2024-03-02T09:25:43;30.27;;;15.35;;
65469;SDS011;52067;50.710;14.492;2024-03-02T09:28:08;30.63;;;15.48;;
65469;SDS011;52067;50.710;14.492;2024-03-02T09:30:34;26.83;;;13.43;;
65469;SDS011;52067;50.710;14.492;2024-03-02T09:33:03;24.55;;;13.88;;
65469;SDS011;52067;50.710;14.492;2024-03-02T09:35:28;30.13;;;14.52;;
65469;SDS011;52067;50.710;14.492;2024-03-02T09:37:54;27.98;;;13.77;;
65469;SDS011;52067;50.710;14.492;2024-03-02T09:40:21;28.70;;;14.27;;
65469;SDS011;52067;50.710;14.492;2024-03-02T09:42:47;31.63;;;14.43;;
65469;SDS011;52067;50.710;14.492;2024-03-02T09:45:17;27.02;;;13.88;;
65469;SDS011;52067;50.710;14.492;2024-03-02T09:47:47;30.35;;;14.45;;
65469;SDS011;52067;50.710;14.492;2024-03-02T09:50:13;22.25;;;11.77;;
65469;SDS011;52067;50.710;14.492;2024-03-02T09:52:39;25.75;;;12.35;;
65469;SDS011;52067;50.710;14.492;2024-03-02T09:55:09;25.27;;;12.70;;
65469;SDS011;52067;50.710;14.492;2024-03-02T09:57:36;29.25;;;14.38;;
65469;SDS011;52067;50.710;14.492;2024-03-02T10:00:02;28.20;;;13.10;;
65469;SDS011;52067;50.710;14.492;2024-03-02T10:02:31;25.38;;;13.57;;
65469;SDS011;52067;50.710;14.492;2024-03-02T10:05:09;26.95;;;13.85;;
65469;SDS011;52067;50.710;14.492;2024-03-02T10:07:46;28.88;;;13.88;;
65469;SDS011;52067;50.710;14.492;2024-03-02T10:10:39;30.27;;;14.40;;
65469;SDS011;52067;50.710;14.492;2024-03-02T10:13:08;36.10;;;16.77;;
65469;SDS011;52067;50.710;14.492;2024-03-02T10:15:45;27.38;;;12.52;;
65469;SDS011;52067;50.710;14.492;2024-03-02T10:18:12;30.52;;;14.35;;
65469;SDS011;52067;50.710;14.492;2024-03-02T10:20:38;26.95;;;13.20;;
65469;SDS011;52067;50.710;14.492;2024-03-02T10:23:15;25.05;;;13.13;;
65469;SDS011;52067;50.710;14.492;2024-03-02T10:25:41;26.33;;;12.25;;
65469;SDS011;52067;50.710;14.492;2024-03-02T10:28:08;22.58;;;11.43;;
65469;SDS011;52067;50.710;14.492;2024-03-02T10:30:34;21.80;;;11.00;;
65469;SDS011;52067;50.710;14.492;2024-03-02T10:33:02;26.35;;;10.90;;
65469;SDS011;52067;50.710;14.492;2024-03-02T10:35:30;23.17;;;11.30;;
65469;SDS011;52067;50.710;14.492;2024-03-02T10:38:04;22.23;;;11.50;;
65469;SDS011;52067;50.710;14.492;2024-03-02T10:40:31;28.88;;;13.45;;
65469;SDS011;52067;50.710;14.492;2024-03-02T10:42:56;22.77;;;11.40;;
65469;SDS011;52067;50.710;14.492;2024-03-02T10:45:22;18.63;;;10.65;;
65469;SDS011;52067;50.710;14.492;2024-03-02T10:47:50;21.65;;;10.55;;
65469;SDS011;52067;50.710;14.492;2024-03-02T10:50:16;23.83;;;10.95;;
65469;SDS011;52067;50.710;14.492;2024-03-02T10:52:42;21.92;;;9.75;;
65469;SDS011;52067;50.710;14.492;2024-03-02T10:55:08;23.70;;;11.02;;
65469;SDS011;52067;50.710;14.492;2024-03-02T10:57:51;25.15;;;12.15;;
65469;SDS011;52067;50.710;14.492;2024-03-02T11:00:18;24.27;;;10.85;;
65469;SDS011;52067;50.710;14.492;2024-03-02T11:02:56;23.52;;;10.45;;
65469;SDS011;52067;50.710;14.492;2024-03-02T11:05:26;24.33;;;12.05;;
65469;SDS011;52067;50.710;14.492;2024-03-02T11:07:57;23.15;;;12.05;;
65469;SDS011;52067;50.710;14.492;2024-03-02T11:10:32;26.48;;;11.13;;
65469;SDS011;52067;50.710;14.492;2024-03-02T11:13:01;21.13;;;11.38;;
65469;SDS011;52067;50.710;14.492;2024-03-02T11:15:30;25.58;;;11.80;;
65469;SDS011;52067;50.710;14.492;2024-03-02T11:17:56;18.58;;;10.25;;
65469;SDS011;52067;50.710;14.492;2024-03-02T11:20:23;20.77;;;10.73;;
65469;SDS011;52067;50.710;14.492;2024-03-02T11:22:49;23.15;;;11.18;;
65469;SDS011;52067;50.710;14.492;2024-03-02T11:25:25;19.23;;;10.05;;
65469;SDS011;52067;50.710;14.492;2024-03-02T11:32:58;20.00;;;11.35;;
65469;SDS011;52067;50.710;14.492;2024-03-02T11:35:32;19.75;;;10.48;;
65469;SDS011;52067;50.710;14.492;2024-03-02T11:37:58;21.42;;;10.85;;
65469;SDS011;52067;50.710;14.492;2024-03-02T11:40:27;26.75;;;11.52;;
65469;SDS011;52067;50.710;14.492;2024-03-02T11:42:53;18.77;;;10.98;;
65469;SDS011;52067;50.710;14.492;2024-03-02T11:45:26;22.55;;;12.30;;
65469;SDS011;52067;50.710;14.492;2024-03-02T11:47:55;20.65;;;10.90;;
65469;SDS011;52067;50.710;14.492;2024-03-02T11:50:31;21.45;;;11.30;;
65469;SDS011;52067;50.710;14.492;2024-03-02T11:53:00;19.63;;;11.55;;
65469;SDS011;52067;50.710;14.492;2024-03-02T11:55:25;22.92;;;11.00;;
65469;SDS011;52067;50.710;14.492;2024-03-02T11:57:54;23.95;;;12.75;;
65469;SDS011;52067;50.710;14.492;2024-03-02T12:00:20;19.70;;;11.57;;
65469;SDS011;52067;50.710;14.492;2024-03-02T12:02:46;25.95;;;12.52;;
65469;SDS011;52067;50.710;14.492;2024-03-02T12:05:14;24.77;;;12.90;;
65469;SDS011;52067;50.710;14.492;2024-03-02T12:07:42;22.27;;;12.30;;
65469;SDS011;52067;50.710;14.492;2024-03-02T12:10:08;23.90;;;10.88;;
65469;SDS011;52067;50.710;14.492;2024-03-02T12:12:33;18.48;;;10.52;;
65469;SDS011;52067;50.710;14.492;2024-03-02T12:14:59;23.38;;;11.75;;
65469;SDS011;52067;50.710;14.492;2024-03-02T12:17:25;20.98;;;12.32;;
65469;SDS011;52067;50.710;14.492;2024-03-02T12:19:51;22.63;;;11.55;;
65469;SDS011;52067;50.710;14.492;2024-03-02T12:22:17;19.80;;;11.13;;
65469;SDS011;52067;50.710;14.492;2024-03-02T12:24:43;25.30;;;13.13;;
65469;SDS011;52067;50.710;14.492;2024-03-02T12:27:12;21.95;;;11.88;;
65469;SDS011;52067;50.710;14.492;2024-03-02T12:29:42;26.20;;;12.50;;
65469;SDS011;52067;50.710;14.492;2024-03-02T12:32:08;22.38;;;11.45;;
65469;SDS011;52067;50.710;14.492;2024-03-02T12:34:33;24.50;;;13.25;;
65469;SDS011;52067;50.710;14.492;2024-03-02T12:36:59;24.08;;;11.32;;
65469;SDS011;52067;50.710;14.492;2024-03-02T12:39:24;23.15;;;11.50;;
65469;SDS011;52067;50.710;14.492;2024-03-02T12:41:50;19.60;;;11.30;;
65469;SDS011;52067;50.710;14.492;2024-03-02T12:44:19;21.85;;;11.77;;
65469;SDS011;52067;50.710;14.492;2024-03-02T12:46:45;22.70;;;10.88;;
65469;SDS011;52067;50.710;14.492;2024-03-02T12:49:12;20.80;;;10.90;;
65469;SDS011;52067;50.710;14.492;2024-03-02T12:51:39;23.13;;;11.60;;
65469;SDS011;52067;50.710;14.492;2024-03-02T12:54:06;19.85;;;10.57;;
65469;SDS011;52067;50.710;14.492;2024-03-02T12:56:35;20.30;;;10.68;;
65469;SDS011;52067;50.710;14.492;2024-03-02T12:59:01;20.30;;;10.13;;
65469;SDS011;52067;50.710;14.492;2024-03-02T13:01:26;20.05;;;10.32;;
65469;SDS011;52067;50.710;14.492;2024-03-02T13:03:52;17.90;;;10.85;;
65469;SDS011;52067;50.710;14.492;2024-03-02T13:06:22;22.15;;;10.85;;
65469;SDS011;52067;50.710;14.492;2024-03-02T13:08:48;21.73;;;12.23;;
65469;SDS011;52067;50.710;14.492;2024-03-02T13:11:14;22.45;;;11.88;;
65469;SDS011;52067;50.710;14.492;2024-03-02T13:13:44;23.38;;;12.57;;
65469;SDS011;52067;50.710;14.492;2024-03-02T13:16:10;22.80;;;11.75;;
65469;SDS011;52067;50.710;14.492;2024-03-02T13:18:36;21.25;;;12.45;;
65469;SDS011;52067;50.710;14.492;2024-03-02T13:21:03;22.40;;;12.80;;
65469;SDS011;52067;50.710;14.492;2024-03-02T13:23:28;20.85;;;11.38;;
65469;SDS011;52067;50.710;14.492;2024-03-02T13:25:56;26.73;;;12.93;;
65469;SDS011;52067;50.710;14.492;2024-03-02T13:28:24;25.23;;;13.02;;
65469;SDS011;52067;50.710;14.492;2024-03-02T13:30:50;24.63;;;12.77;;
65469;SDS011;52067;50.710;14.492;2024-03-02T13:33:23;21.08;;;12.02;;
65469;SDS011;52067;50.710;14.492;2024-03-02T13:35:51;19.67;;;11.35;;
65469;SDS011;52067;50.710;14.492;2024-03-02T13:38:17;22.13;;;12.25;;
65469;SDS011;52067;50.710;14.492;2024-03-02T13:40:46;24.35;;;13.15;;
65469;SDS011;52067;50.710;14.492;2024-03-02T13:43:16;26.55;;;12.73;;
65469;SDS011;52067;50.710;14.492;2024-03-02T13:45:42;22.58;;;12.63;;
65469;SDS011;52067;50.710;14.492;2024-03-02T13:48:09;22.15;;;11.50;;
65469;SDS011;52067;50.710;14.492;2024-03-02T13:50:39;23.15;;;11.75;;
65469;SDS011;52067;50.710;14.492;2024-03-02T13:53:08;23.08;;;12.57;;
65469;SDS011;52067;50.710;14.492;2024-03-02T13:55:34;23.83;;;12.25;;
65469;SDS011;52067;50.710;14.492;2024-03-02T13:57:59;23.20;;;11.80;;
65469;SDS011;52067;50.710;14.492;2024-03-02T14:00:24;22.33;;;12.10;;
65469;SDS011;52067;50.710;14.492;2024-03-02T14:02:50;21.85;;;12.45;;
65469;SDS011;52067;50.710;14.492;2024-03-02T14:05:16;22.45;;;11.95;;
65469;SDS011;52067;50.710;14.492;2024-03-02T14:07:41;28.10;;;13.27;;
65469;SDS011;52067;50.710;14.492;2024-03-02T14:10:07;25.13;;;13.48;;
65469;SDS011;52067;50.710;14.492;2024-03-02T14:12:33;25.73;;;13.90;;
65469;SDS011;52067;50.710;14.492;2024-03-02T14:14:59;25.52;;;13.38;;
65469;SDS011;52067;50.710;14.492;2024-03-02T14:17:27;22.45;;;12.43;;
65469;SDS011;52067;50.710;14.492;2024-03-02T14:19:52;28.02;;;14.07;;